createdAt,value
2022-09-20T00:04:55.804Z,11.18
2022-09-20T00:09:58.292Z,11.43
2022-09-20T00:15:00.788Z,11.44
2022-09-20T00:20:05.166Z,10.96
2022-09-20T00:25:09.145Z,11.17
2022-09-20T00:30:13.018Z,11.15
2022-09-20T00:35:17.596Z,10.99
2022-09-20T00:40:24.510Z,10.74
2022-09-20T00:45:28.556Z,10.71
2022-09-20T00:50:38.031Z,10.80
2022-09-20T00:55:46.494Z,10.58
2022-09-20T01:00:51.047Z,10.49
2022-09-20T01:05:55.866Z,10.45
2022-09-20T01:10:58.522Z,10.36
2022-09-20T01:16:02.940Z,10.52
2022-09-20T01:21:08.076Z,10.37
2022-09-20T01:26:52.570Z,10.19
2022-09-20T01:32:01.009Z,10.16
2022-09-20T01:37:11.647Z,10.19
2022-09-20T01:42:15.622Z,10.47
2022-09-20T01:47:30.912Z,10.25
2022-09-20T01:52:54.822Z,10.37
2022-09-20T01:58:33.358Z,10.00
2022-09-20T02:03:58.405Z,10.05
2022-09-20T02:09:31.530Z,10.02
2022-09-20T02:14:46.762Z,9.88
2022-09-20T02:20:06.795Z,9.53
2022-09-20T02:25:21.607Z,9.48
2022-09-20T02:30:30.011Z,9.45
2022-09-20T02:35:56.229Z,9.60
2022-09-20T02:41:35.029Z,9.55
2022-09-20T02:46:46.543Z,9.71
2022-09-20T02:51:53.493Z,9.88
2022-09-20T02:57:04.716Z,9.95
2022-09-20T03:02:13.099Z,9.98
2022-09-20T03:07:23.939Z,10.05
2022-09-20T03:12:37.041Z,9.81
2022-09-20T03:17:50.851Z,9.63
2022-09-20T03:23:02.077Z,9.76
2022-09-20T03:28:24.728Z,10.19
2022-09-20T03:33:37.944Z,9.93
2022-09-20T03:38:53.357Z,10.24
2022-09-20T03:44:19.087Z,10.45
2022-09-20T03:49:55.087Z,10.15
2022-09-20T03:55:33.595Z,9.94
2022-09-20T04:00:56.904Z,10.06
2022-09-20T04:06:14.839Z,10.21
2022-09-20T04:11:26.975Z,10.41
2022-09-20T04:16:38.779Z,10.80
2022-09-20T04:21:48.211Z,10.87
2022-09-20T04:26:59.547Z,10.57
2022-09-20T04:32:12.929Z,10.65
2022-09-20T04:37:27.764Z,10.64
2022-09-20T04:43:18.426Z,10.49
2022-09-20T04:48:54.556Z,10.88
2022-09-20T04:54:39.877Z,10.49
2022-09-20T04:59:55.691Z,10.25
2022-09-20T05:05:25.807Z,10.61
2022-09-20T05:10:57.888Z,10.67
2022-09-20T05:16:07.157Z,10.24
2022-09-20T05:21:20.963Z,10.94
2022-09-20T05:26:38.909Z,10.89
2022-09-20T05:31:50.810Z,10.14
2022-09-20T05:37:00.442Z,10.68
2022-09-20T05:42:16.042Z,9.68
2022-09-20T05:47:25.865Z,10.77
2022-09-20T05:52:44.128Z,10.84
2022-09-20T05:58:01.239Z,11.11
2022-09-20T06:03:17.429Z,10.91
2022-09-20T06:08:34.714Z,10.84
2022-09-20T06:14:00.363Z,11.22
2022-09-20T06:19:12.772Z,11.33
2022-09-20T06:24:25.717Z,10.44
2022-09-20T06:29:33.182Z,10.92
2022-09-20T06:34:37.327Z,11.09
2022-09-20T06:40:04.037Z,10.86
2022-09-20T06:45:07.245Z,11.32
2022-09-20T06:50:16.315Z,11.40
2022-09-20T06:55:28.464Z,11.66
2022-09-20T07:00:31.683Z,11.54
2022-09-20T07:05:36.268Z,11.97
2022-09-20T07:10:38.792Z,11.87
2022-09-20T07:15:41.336Z,11.99
2022-09-20T07:20:45.305Z,12.16
2022-09-20T07:25:47.950Z,11.94
2022-09-20T07:30:50.737Z,12.25
2022-09-20T07:35:55.896Z,12.52
2022-09-20T07:40:59.732Z,12.57
2022-09-20T07:46:02.330Z,12.80
2022-09-20T07:51:09.537Z,12.52
2022-09-20T07:56:14.327Z,12.63
2022-09-20T08:01:17.031Z,13.08
2022-09-20T08:06:21.411Z,12.77
2022-09-20T08:11:28.502Z,12.87
2022-09-20T08:16:32.726Z,12.99
2022-09-20T08:21:38.066Z,13.12
2022-09-20T08:26:40.796Z,13.55
2022-09-20T08:31:43.740Z,13.28
2022-09-20T08:36:51.751Z,13.27
2022-09-20T08:42:00.525Z,13.58
2022-09-20T08:47:09.827Z,14.13
2022-09-20T08:52:18.961Z,14.26
2022-09-20T08:57:21.836Z,14.53
2022-09-20T09:02:24.454Z,14.55
2022-09-20T09:07:29.077Z,14.40
2022-09-20T09:12:36.747Z,14.60
2022-09-20T09:17:39.170Z,14.74
2022-09-20T09:22:45.779Z,15.34
2022-09-20T09:27:57.019Z,15.69
2022-09-20T09:33:18.749Z,15.18
2022-09-20T09:38:26.040Z,15.87
2022-09-20T09:43:32.512Z,15.03
2022-09-20T09:48:37.217Z,15.23
2022-09-20T09:53:43.575Z,15.73
2022-09-20T09:59:02.532Z,15.65
2022-09-20T10:04:14.930Z,16.17
2022-09-20T10:09:28.408Z,16.61
2022-09-20T10:14:45.586Z,16.12
2022-09-20T10:20:01.982Z,16.35
2022-09-20T10:25:17.160Z,17.67
2022-09-20T10:30:22.038Z,17.23
2022-09-20T10:35:30.925Z,17.20
2022-09-20T10:40:57.565Z,16.97
2022-09-20T10:46:31.288Z,19.44
2022-09-20T10:51:45.633Z,17.57
2022-09-20T10:56:56.355Z,21.33
2022-09-20T11:02:14.676Z,22.99
2022-09-20T11:07:20.440Z,24.09
2022-09-20T11:12:29.697Z,28.98
2022-09-20T11:17:36.945Z,27.86
2022-09-20T11:22:44.947Z,26.57
2022-09-20T11:27:54.733Z,27.55
2022-09-20T11:33:02.998Z,29.14
2022-09-20T11:38:14.178Z,29.22
2022-09-20T11:43:20.029Z,23.48
2022-09-20T11:48:26.884Z,27.22
2022-09-20T11:53:43.000Z,27.09
2022-09-20T11:58:49.208Z,24.96
2022-09-20T12:04:14.164Z,21.56
2022-09-20T12:09:26.389Z,21.65
2022-09-20T12:14:32.307Z,25.88
2022-09-20T12:19:40.259Z,28.49
2022-09-20T12:24:45.489Z,32.51
2022-09-20T12:30:17.539Z,32.58
2022-09-20T12:35:59.917Z,31.73
2022-09-20T12:41:07.817Z,34.77
2022-09-20T12:46:21.910Z,33.22
2022-09-20T12:51:59.231Z,30.14
2022-09-20T12:57:19.225Z,33.42
2022-09-20T13:02:57.495Z,30.56
2022-09-20T13:08:03.463Z,25.05
2022-09-20T13:13:17.040Z,30.00
2022-09-20T13:18:22.128Z,26.31
2022-09-20T13:23:27.983Z,26.09
2022-09-20T13:28:38.394Z,32.55
2022-09-20T13:33:43.246Z,33.07
2022-09-20T13:38:48.300Z,26.34
2022-09-20T13:43:52.056Z,27.03
2022-09-20T13:49:17.541Z,26.80
2022-09-20T13:54:27.207Z,25.48
2022-09-20T13:59:34.559Z,21.97
2022-09-20T14:04:40.462Z,20.76
2022-09-20T14:09:43.716Z,27.20
2022-09-20T14:14:47.529Z,27.62
2022-09-20T14:19:54.520Z,27.40
2022-09-20T14:25:01.338Z,21.22
2022-09-20T14:30:07.366Z,19.72
2022-09-20T14:35:17.657Z,18.06
2022-09-20T14:40:23.865Z,17.53
2022-09-20T14:45:32.568Z,17.19
2022-09-20T14:50:39.255Z,16.42
2022-09-20T14:55:58.979Z,15.82
2022-09-20T15:01:05.948Z,15.85
2022-09-20T15:06:14.643Z,15.33
2022-09-20T15:11:17.829Z,15.67
2022-09-20T15:16:22.365Z,15.62
2022-09-20T15:21:28.854Z,15.46
2022-09-20T15:26:34.545Z,15.02
2022-09-20T15:31:37.339Z,14.88
2022-09-20T15:36:42.730Z,14.63
2022-09-20T15:41:46.073Z,14.37
2022-09-20T15:46:50.751Z,14.83
2022-09-20T15:51:54.668Z,13.85
2022-09-20T15:56:58.421Z,13.94
2022-09-20T16:02:02.302Z,14.51
2022-09-20T16:07:09.559Z,14.58
2022-09-20T16:12:12.115Z,13.30
2022-09-20T16:17:14.694Z,13.92
2022-09-20T16:22:19.622Z,13.59
2022-09-20T16:27:22.300Z,13.19
2022-09-20T16:32:24.797Z,12.70
2022-09-20T16:37:32.751Z,13.30
2022-09-20T16:42:35.288Z,13.97
2022-09-20T16:47:37.883Z,12.12
2022-09-20T16:52:41.982Z,13.02
2022-09-20T16:57:44.429Z,13.33
2022-09-20T17:02:47.976Z,13.42
2022-09-20T17:07:51.875Z,13.36
2022-09-20T17:12:58.022Z,13.05
2022-09-20T17:18:00.552Z,12.95
2022-09-20T17:23:07.961Z,12.41
2022-09-20T17:28:10.564Z,12.70
2022-09-20T17:33:13.223Z,12.78
2022-09-20T17:38:17.520Z,11.19
2022-09-20T17:43:19.980Z,11.49
2022-09-20T17:48:24.322Z,11.56
2022-09-20T17:53:28.122Z,11.73
2022-09-20T17:58:31.310Z,11.15
2022-09-20T18:03:38.114Z,10.69
2022-09-20T18:08:42.675Z,10.86
2022-09-20T18:13:45.875Z,9.84
2022-09-20T18:18:49.676Z,9.32
2022-09-20T18:23:54.183Z,10.06
2022-09-20T18:28:58.022Z,9.48
2022-09-20T18:34:01.203Z,10.16
2022-09-20T18:39:06.072Z,9.50
2022-09-20T18:44:09.050Z,10.14
2022-09-20T18:49:15.190Z,10.41
2022-09-20T18:54:19.765Z,10.65
2022-09-20T18:59:24.129Z,10.50
2022-09-20T19:04:35.433Z,10.21
2022-09-20T19:09:47.463Z,10.73
2022-09-20T19:15:05.847Z,9.19
2022-09-20T19:20:19.700Z,9.84
2022-09-20T19:25:29.615Z,10.49
2022-09-20T19:30:32.927Z,10.75
2022-09-20T19:35:39.427Z,10.57
2022-09-20T19:40:59.563Z,10.65
2022-09-20T19:46:13.435Z,10.87
2022-09-20T19:51:17.071Z,11.00
2022-09-20T19:56:25.674Z,11.13
2022-09-20T20:01:29.023Z,11.13
2022-09-20T20:06:36.272Z,11.16
2022-09-20T20:11:48.720Z,11.42
2022-09-20T20:17:01.603Z,11.38
2022-09-20T20:22:12.694Z,10.84
2022-09-20T20:27:16.711Z,11.06
2022-09-20T20:32:19.461Z,10.99
2022-09-20T20:37:24.314Z,10.88
2022-09-20T20:42:30.804Z,10.97
2022-09-20T20:47:34.385Z,9.82
2022-09-20T20:52:37.235Z,9.71
2022-09-20T20:57:41.298Z,9.53
2022-09-20T21:02:45.057Z,9.29
2022-09-20T21:07:51.608Z,8.65
2022-09-20T21:12:56.323Z,9.12
2022-09-20T21:17:59.176Z,8.43
2022-09-20T21:23:01.803Z,8.64
2022-09-20T21:28:05.877Z,8.76
2022-09-20T21:33:08.574Z,9.09
2022-09-20T21:38:11.464Z,7.91
2022-09-20T21:43:15.578Z,7.61
2022-09-20T21:48:18.755Z,8.08
2022-09-20T21:53:21.361Z,7.92
2022-09-20T21:58:25.780Z,8.21
2022-09-20T22:03:33.424Z,8.75
2022-09-20T22:08:36.978Z,8.43
2022-09-20T22:13:44.959Z,7.51
2022-09-20T22:18:48.314Z,7.33
2022-09-20T22:23:52.866Z,7.24
2022-09-20T22:28:56.860Z,7.37
2022-09-20T22:34:02.061Z,7.35
2022-09-20T22:39:07.322Z,7.16
2022-09-20T22:44:12.372Z,7.32
2022-09-20T22:49:14.815Z,7.53
2022-09-20T22:54:17.530Z,8.15
2022-09-20T22:59:21.880Z,8.59
2022-09-20T23:04:24.563Z,8.89
2022-09-20T23:09:29.637Z,8.79
2022-09-20T23:14:33.665Z,9.04
2022-09-20T23:19:36.361Z,8.45
2022-09-20T23:24:39.129Z,8.53
2022-09-20T23:29:42.870Z,8.85
2022-09-20T23:34:45.319Z,7.78
2022-09-20T23:39:47.757Z,7.56
2022-09-20T23:44:51.925Z,7.49
2022-09-20T23:49:54.626Z,8.37
2022-09-20T23:54:57.328Z,7.31
